This is the latest recevied weather packets stored in our database for station/object DC4XK-10. If no packets are shown the sender has not sent any weather packets the latest 10 day(s).
| Time | Temp. | Humidity | Pressure | Rain* | Wind** | Luminosity | Snow |
|---|---|---|---|---|---|---|---|
| 1777824532 | 19.44° C | 93% | 1005.9 hPa | 0 mm | 0 m/s | - | - |
| 1777823931 | 18.33° C | 95% | 1006 hPa | 0 mm | 0 m/s | - | - |
| 1777823331 | 18.33° C | 96% | 1006.5 hPa | 0 mm | 0 m/s | - | - |
| 1777822732 | 18.33° C | 94% | 1006.4 hPa | 0 mm | 0 m/s | - | - |
| 1777822131 | 18.33° C | 92% | 1006.5 hPa | 24.64 mm | 0 m/s | - | - |
| 1777821531 | 21.67° C | 73% | 1006.6 hPa | 0 mm | 0.45 m/s, 177° | - | - |
| 1777820931 | 22.22° C | 72% | 1006.3 hPa | 0 mm | 0 m/s | - | - |
| 1777820331 | 22.78° C | 71% | 1006.5 hPa | 0 mm | 0 m/s | - | - |
| 1777819731 | 22.78° C | 70% | 1006.9 hPa | 0 mm | 0 m/s | - | - |
| 1777819131 | 23.33° C | 66% | 1006.5 hPa | 0 mm | 0 m/s | - | - |
| 1777818531 | 23.33° C | 67% | 1006.9 hPa | 0 mm | 0 m/s | - | - |
| 1777817931 | 25.56° C | 60% | 1007 hPa | 0 mm | 0.89 m/s, 27° | - | - |
| 1777817331 | 27.22° C | 50% | 1007.1 hPa | 0 mm | 0 m/s | - | - |
| 1777816732 | 25.56° C | 53% | 1007.3 hPa | 0 mm | 0 m/s | - | - |
| 1777816131 | 25° C | 54% | 1007.2 hPa | 0 mm | 0.89 m/s, 240° | - | - |
| 1777815531 | 25° C | 55% | 1007.6 hPa | 0 mm | 0.89 m/s, 238° | - | - |
| 1777814933 | 25° C | 56% | 1007.8 hPa | 0 mm | 0.89 m/s, 174° | - | - |
| 1777814331 | 24.44° C | 56% | 1008.2 hPa | 0 mm | 1.34 m/s, 215° | - | - |
| 1777813731 | 26.67° C | 54% | 1008.3 hPa | 0 mm | 1.79 m/s, 181° | - | - |
| 1777813134 | 25° C | 56% | 1008.5 hPa | 0 mm | 1.34 m/s, 221° | - | - |
| 1777812531 | 24.44° C | 55% | 1008.2 hPa | 0 mm | 0.45 m/s, 173° | - | - |
| 1777811931 | 25° C | 56% | 1008.3 hPa | 0 mm | 1.79 m/s, 212° | - | - |
| 1777811334 | 23.89° C | 59% | 1008.5 hPa | 0 mm | 0.89 m/s, 126° | - | - |
| 1777810731 | 23.33° C | 62% | 1008.6 hPa | 0 mm | 0 m/s | - | - |
| 1777810131 | 22.78° C | 61% | 1008.5 hPa | 0 mm | 1.34 m/s, 202° | - | - |
* Rain latest hour (hover to see other rain measurements)
** Current wind speed in m/s (hover to see current wind gust speed)